Time;durP1;ratioP1;P1;durP2;ratioP2;P2;SDS_P1;SDS_P2;PMS_P1;PMS_P2;Temp;Humidity;BMP_temperature;BMP_pressure;BME280_temperature;BME280_humidity;BME280_pressure;Samples;Min_cycle;Max_cycle;Signal;HPM_P1;HPM_P2
2024/01/04 00:02:30;;;;;;;1.50;0.40;;;;;;;;;;4939096;29;20177;-84
2024/01/04 00:05:34;;;;;;;0.57;0.40;;;;;;;;;;4938396;29;20216;-84
2024/01/04 00:08:38;;;;;;;0.77;0.40;;;;;;;;;;4938675;29;20180;-83
2024/01/04 00:11:43;;;;;;;0.93;0.53;;;;;;;;;;4938562;29;20530;-85
2024/01/04 00:14:47;;;;;;;1.27;0.70;;;;;;;;;;4938440;29;20196;-85
2024/01/04 00:17:51;;;;;;;1.97;0.57;;;;;;;;;;4944301;29;20573;-84
2024/01/04 00:20:55;;;;;;;1.43;0.60;;;;;;;;;;4941083;29;20181;-82
2024/01/04 00:24:03;;;;;;;0.83;0.50;;;;;;;;;;4938710;29;20188;-81
2024/01/04 00:27:07;;;;;;;2.47;0.53;;;;;;;;;;4931081;29;20220;-83
2024/01/04 00:30:12;;;;;;;1.17;0.40;;;;;;;;;;4928483;29;20180;-84
2024/01/04 00:33:17;;;;;;;1.37;0.40;;;;;;;;;;4938411;29;20673;-85
2024/01/04 00:36:21;;;;;;;1.27;0.60;;;;;;;;;;4943709;29;20228;-81
2024/01/04 00:39:25;;;;;;;1.23;0.50;;;;;;;;;;4938958;29;20216;-85
2024/01/04 00:42:30;;;;;;;2.47;0.53;;;;;;;;;;4938435;29;20184;-85
2024/01/04 00:45:34;;;;;;;1.43;0.60;;;;;;;;;;4937940;29;20221;-86
2024/01/04 00:48:38;;;;;;;1.50;0.80;;;;;;;;;;4937897;29;20184;-86
2024/01/04 00:51:42;;;;;;;1.13;0.50;;;;;;;;;;4926674;29;20188;-85
2024/01/04 00:54:46;;;;;;;1.27;0.50;;;;;;;;;;4937639;29;20196;-85
2024/01/04 00:57:51;;;;;;;1.03;0.63;;;;;;;;;;4938070;29;20515;-85
2024/01/04 01:00:55;;;;;;;1.63;0.60;;;;;;;;;;4937353;29;20630;-85
2024/01/04 01:04:02;;;;;;;3.00;0.63;;;;;;;;;;4937376;29;20184;-85
2024/01/04 01:07:07;;;;;;;2.47;0.77;;;;;;;;;;4915774;29;20224;-85
2024/01/04 01:10:11;;;;;;;6.07;0.90;;;;;;;;;;4926632;29;20184;-85
2024/01/04 01:13:20;;;;;;;0.70;0.40;;;;;;;;;;4947853;29;20188;-85
2024/01/04 01:16:25;;;;;;;3.90;0.80;;;;;;;;;;4937303;29;20220;-85
2024/01/04 01:19:30;;;;;;;1.80;0.60;;;;;;;;;;4937142;29;20576;-84
2024/01/04 01:22:35;;;;;;;2.13;0.53;;;;;;;;;;4926612;29;20188;-86
2024/01/04 01:25:41;;;;;;;3.40;0.97;;;;;;;;;;4937275;29;20223;-85
2024/01/04 01:28:45;;;;;;;3.40;0.77;;;;;;;;;;4915760;29;20180;-85
2024/01/04 01:31:49;;;;;;;1.90;0.50;;;;;;;;;;4915118;29;20192;-85
2024/01/04 01:34:54;;;;;;;2.53;0.70;;;;;;;;;;4926137;29;20196;-85
2024/01/04 01:37:58;;;;;;;1.97;0.70;;;;;;;;;;4937399;29;20196;-85
2024/01/04 01:41:04;;;;;;;3.37;0.63;;;;;;;;;;4925866;29;20519;-86
2024/01/04 01:44:08;;;;;;;3.33;0.70;;;;;;;;;;4936133;29;20184;-86
2024/01/04 01:47:12;;;;;;;0.83;0.50;;;;;;;;;;4913955;29;20562;-85
2024/01/04 01:50:19;;;;;;;1.37;0.60;;;;;;;;;;4947411;29;20192;-85
2024/01/04 01:53:24;;;;;;;2.97;0.70;;;;;;;;;;4925637;29;20545;-85
2024/01/04 01:56:29;;;;;;;1.90;0.60;;;;;;;;;;4925194;29;20585;-86
2024/01/04 01:59:34;;;;;;;1.77;0.77;;;;;;;;;;4925301;29;20212;-85
2024/01/04 02:02:43;;;;;;;1.57;0.60;;;;;;;;;;4947251;29;20188;-85
2024/01/04 02:05:47;;;;;;;2.10;0.60;;;;;;;;;;4935856;29;20220;-86
2024/01/04 02:08:51;;;;;;;1.67;0.60;;;;;;;;;;4925230;29;20184;-85
2024/01/04 02:12:06;;;;;;;3.20;0.60;;;;;;;;;;4936241;29;20188;-85
2024/01/04 02:15:10;;;;;;;3.20;0.77;;;;;;;;;;4939273;29;20176;-85
2024/01/04 02:18:14;;;;;;;2.73;0.60;;;;;;;;;;4938864;29;20188;-85
2024/01/04 02:21:19;;;;;;;1.33;0.57;;;;;;;;;;4929744;29;20176;-86
2024/01/04 02:24:23;;;;;;;2.03;0.80;;;;;;;;;;4927615;29;20196;-85
2024/01/04 02:27:27;;;;;;;2.70;0.50;;;;;;;;;;4938393;29;20552;-85
2024/01/04 02:30:31;;;;;;;3.40;0.70;;;;;;;;;;4939225;29;20180;-85
2024/01/04 02:33:36;;;;;;;0.70;0.50;;;;;;;;;;4917364;29;20649;-85
2024/01/04 02:36:42;;;;;;;2.20;0.90;;;;;;;;;;4938488;29;20657;-85
2024/01/04 02:39:46;;;;;;;4.70;0.60;;;;;;;;;;4927796;29;20216;-86
2024/01/04 02:42:50;;;;;;;2.30;0.60;;;;;;;;;;4928140;29;20184;-85
2024/01/04 02:45:54;;;;;;;2.57;0.83;;;;;;;;;;4927513;29;20692;-86
2024/01/04 02:48:58;;;;;;;1.30;0.53;;;;;;;;;;4927591;29;20188;-85
2024/01/04 02:52:03;;;;;;;4.87;0.83;;;;;;;;;;4939074;29;20522;-85
2024/01/04 02:55:07;;;;;;;1.37;0.60;;;;;;;;;;4938533;29;20184;-85
2024/01/04 02:58:12;;;;;;;2.47;0.70;;;;;;;;;;4938293;29;20184;-85
2024/01/04 03:01:23;;;;;;;1.93;0.77;;;;;;;;;;4926911;29;20511;-85
2024/01/04 03:04:27;;;;;;;1.67;0.53;;;;;;;;;;4937658;29;20180;-85
2024/01/04 03:07:32;;;;;;;4.13;0.90;;;;;;;;;;4927057;29;20188;-85
2024/01/04 03:10:36;;;;;;;2.20;0.50;;;;;;;;;;4996277;28;20184;-86
2024/01/04 03:13:40;;;;;;;4.73;0.80;;;;;;;;;;4938362;29;20184;-86
2024/01/04 03:16:45;;;;;;;2.50;0.50;;;;;;;;;;4938747;29;20704;-85
2024/01/04 03:19:49;;;;;;;1.10;0.50;;;;;;;;;;4938713;29;20212;-86
2024/01/04 03:22:53;;;;;;;2.70;0.77;;;;;;;;;;4916402;29;20185;-85
2024/01/04 03:25:58;;;;;;;3.03;0.60;;;;;;;;;;4936844;29;20219;-86
2024/01/04 03:29:05;;;;;;;2.87;0.60;;;;;;;;;;4937796;29;20181;-85
2024/01/04 03:32:08;;;;;;;2.40;0.77;;;;;;;;;;4916130;29;20196;-85
2024/01/04 03:35:13;;;;;;;2.23;0.60;;;;;;;;;;4926517;29;20188;-86
2024/01/04 03:38:17;;;;;;;3.00;0.90;;;;;;;;;;4948599;29;20176;-85
2024/01/04 03:41:21;;;;;;;2.17;0.77;;;;;;;;;;4937865;29;20645;-85
2024/01/04 03:44:25;;;;;;;4.63;0.83;;;;;;;;;;4937737;29;20630;-86
2024/01/04 03:47:29;;;;;;;2.30;0.77;;;;;;;;;;4937798;29;20185;-87
2024/01/04 03:50:35;;;;;;;3.17;0.90;;;;;;;;;;4937787;29;20638;-85
2024/01/04 03:53:40;;;;;;;4.47;0.70;;;;;;;;;;4937708;29;20188;-85
2024/01/04 03:56:44;;;;;;;2.27;0.67;;;;;;;;;;4937173;29;20216;-86
2024/01/04 03:59:48;;;;;;;3.40;0.80;;;;;;;;;;4937299;29;20576;-87
2024/01/04 04:02:52;;;;;;;2.10;0.57;;;;;;;;;;4937392;29;20534;-86
2024/01/04 04:05:56;;;;;;;3.63;0.90;;;;;;;;;;4938585;29;20224;-86
2024/01/04 04:09:00;;;;;;;4.10;0.70;;;;;;;;;;4948994;29;20192;-86
2024/01/04 04:12:05;;;;;;;1.87;0.77;;;;;;;;;;4938387;29;20537;-85
2024/01/04 04:15:09;;;;;;;3.20;0.80;;;;;;;;;;4937057;29;20196;-86
2024/01/04 04:18:13;;;;;;;2.90;0.70;;;;;;;;;;4937564;29;20184;-85
2024/01/04 04:21:22;;;;;;;2.63;0.53;;;;;;;;;;4938097;29;20580;-85
2024/01/04 04:24:26;;;;;;;2.03;0.60;;;;;;;;;;4938460;29;20196;-85
2024/01/04 04:27:31;;;;;;;2.93;0.80;;;;;;;;;;4928243;29;20185;-85
2024/01/04 04:30:36;;;;;;;1.63;0.90;;;;;;;;;;4939533;29;20177;-86
2024/01/04 04:33:41;;;;;;;2.30;0.70;;;;;;;;;;4927819;29;20184;-85
2024/01/04 04:36:45;;;;;;;3.03;0.80;;;;;;;;;;4937479;29;20224;-87
2024/01/04 04:39:50;;;;;;;2.83;0.60;;;;;;;;;;4926232;29;20214;-86
2024/01/04 04:42:54;;;;;;;1.93;0.60;;;;;;;;;;4937728;29;20189;-86
2024/01/04 04:45:59;;;;;;;4.03;0.60;;;;;;;;;;4937956;29;20227;-85
2024/01/04 04:49:03;;;;;;;3.10;0.80;;;;;;;;;;4936746;29;20185;-87
2024/01/04 04:52:07;;;;;;;1.60;0.60;;;;;;;;;;4937763;29;20176;-85
2024/01/04 04:55:12;;;;;;;1.00;0.70;;;;;;;;;;4937337;29;20189;-86
2024/01/04 04:58:16;;;;;;;2.20;0.60;;;;;;;;;;4937326;29;20184;-86
2024/01/04 05:01:20;;;;;;;4.00;0.67;;;;;;;;;;4937265;29;20220;-85
2024/01/04 05:04:25;;;;;;;2.17;0.70;;;;;;;;;;4938305;29;20180;-86
2024/01/04 05:07:29;;;;;;;1.83;0.43;;;;;;;;;;4937653;29;20188;-85
2024/01/04 05:10:33;;;;;;;2.30;0.80;;;;;;;;;;4937332;29;20190;-86
2024/01/04 05:13:38;;;;;;;1.90;0.60;;;;;;;;;;4936724;29;20192;-85
2024/01/04 05:16:44;;;;;;;5.57;0.63;;;;;;;;;;4925957;29;20220;-85
2024/01/04 05:19:48;;;;;;;1.73;0.70;;;;;;;;;;4925632;29;20212;-85
2024/01/04 05:22:52;;;;;;;1.70;0.80;;;;;;;;;;4936479;29;20192;-85
2024/01/04 05:25:56;;;;;;;1.17;0.50;;;;;;;;;;4936695;29;20219;-86
2024/01/04 05:29:00;;;;;;;1.37;0.70;;;;;;;;;;4936048;29;20184;-85
2024/01/04 05:32:05;;;;;;;2.93;0.60;;;;;;;;;;4936422;29;20189;-85
2024/01/04 05:35:12;;;;;;;4.17;0.90;;;;;;;;;;4936187;29;20188;-85
2024/01/04 05:38:17;;;;;;;1.20;0.50;;;;;;;;;;4936421;29;20176;-85
2024/01/04 05:41:22;;;;;;;2.33;0.80;;;;;;;;;;4937498;29;20216;-85
2024/01/04 05:44:26;;;;;;;2.83;1.00;;;;;;;;;;4924964;29;20188;-84
2024/01/04 05:47:30;;;;;;;2.53;0.67;;;;;;;;;;4924252;29;20184;-86
2024/01/04 05:50:34;;;;;;;0.93;0.60;;;;;;;;;;4937174;29;20614;-85
2024/01/04 05:53:38;;;;;;;1.37;0.50;;;;;;;;;;4937107;29;20188;-87
2024/01/04 05:56:44;;;;;;;3.00;0.70;;;;;;;;;;4947198;29;20219;-86
2024/01/04 05:59:48;;;;;;;1.90;0.73;;;;;;;;;;4935551;29;20217;-86
2024/01/04 06:02:52;;;;;;;2.40;0.87;;;;;;;;;;4924535;29;20537;-85
2024/01/04 06:05:56;;;;;;;3.80;0.60;;;;;;;;;;4924606;29;20224;-85
2024/01/04 06:09:03;;;;;;;2.10;0.70;;;;;;;;;;4936135;29;20188;-85
2024/01/04 06:12:08;;;;;;;0.83;0.40;;;;;;;;;;4937189;29;20188;-85
2024/01/04 06:15:12;;;;;;;2.03;0.53;;;;;;;;;;4935260;29;20522;-84
2024/01/04 06:18:18;;;;;;;0.90;0.50;;;;;;;;;;4936118;29;20188;-87
2024/01/04 06:21:22;;;;;;;2.17;0.60;;;;;;;;;;4935387;29;20668;-85
2024/01/04 06:24:26;;;;;;;5.50;0.83;;;;;;;;;;4935331;29;20625;-85
2024/01/04 06:27:31;;;;;;;1.87;0.70;;;;;;;;;;4935666;29;20585;-85
2024/01/04 06:30:35;;;;;;;2.23;0.70;;;;;;;;;;4936319;29;20546;-84
2024/01/04 06:33:39;;;;;;;5.77;1.20;;;;;;;;;;4923371;29;20728;-86
2024/01/04 06:36:43;;;;;;;2.90;0.70;;;;;;;;;;4934769;29;20704;-85
2024/01/04 06:39:49;;;;;;;2.10;0.63;;;;;;;;;;4935285;29;20180;-85
2024/01/04 06:42:55;;;;;;;4.90;0.83;;;;;;;;;;4934772;29;20189;-85
2024/01/04 06:45:59;;;;;;;2.33;0.93;;;;;;;;;;4934767;29;20220;-85
2024/01/04 06:49:04;;;;;;;2.60;0.60;;;;;;;;;;4935045;29;20189;-85
2024/01/04 06:52:08;;;;;;;2.60;0.70;;;;;;;;;;4935458;29;20180;-85
2024/01/04 06:55:13;;;;;;;2.90;0.60;;;;;;;;;;4923599;29;20180;-87
2024/01/04 06:58:17;;;;;;;2.40;0.90;;;;;;;;;;4935811;29;20181;-84
2024/01/04 07:01:21;;;;;;;1.17;0.60;;;;;;;;;;4995724;28;20212;-87
2024/01/04 07:04:25;;;;;;;3.07;0.70;;;;;;;;;;4927795;29;20180;-83
2024/01/04 07:07:30;;;;;;;1.13;0.50;;;;;;;;;;4928521;28;20188;-84
2024/01/04 07:10:34;;;;;;;1.87;0.80;;;;;;;;;;4941726;29;20188;-84
2024/01/04 07:13:38;;;;;;;0.73;0.70;;;;;;;;;;4940889;29;20549;-86
2024/01/04 07:16:44;;;;;;;1.83;0.87;;;;;;;;;;4930340;29;20701;-84
2024/01/04 07:19:48;;;;;;;1.90;1.03;;;;;;;;;;4930666;29;20180;-84
2024/01/04 07:22:53;;;;;;;1.27;0.77;;;;;;;;;;4941387;29;20188;-84
2024/01/04 07:25:57;;;;;;;2.40;0.77;;;;;;;;;;4919091;29;20216;-84
2024/01/04 07:29:01;;;;;;;3.53;0.80;;;;;;;;;;4931472;29;20185;-84
2024/01/04 07:32:06;;;;;;;3.70;0.93;;;;;;;;;;4941616;29;20188;-84
2024/01/04 07:35:12;;;;;;;1.73;0.60;;;;;;;;;;4942312;29;20208;-83
2024/01/04 07:38:17;;;;;;;2.30;0.53;;;;;;;;;;4941734;29;20177;-85
2024/01/04 07:41:21;;;;;;;3.63;1.70;;;;;;;;;;4944246;29;20216;-85
2024/01/04 07:44:25;;;;;;;2.63;0.90;;;;;;;;;;4945626;29;20192;-84
2024/01/04 07:47:29;;;;;;;2.80;0.70;;;;;;;;;;4945200;29;20180;-85
2024/01/04 07:50:35;;;;;;;1.30;0.50;;;;;;;;;;4946590;29;20184;-85
2024/01/04 07:53:40;;;;;;;2.03;1.10;;;;;;;;;;4935687;29;20196;-84
2024/01/04 07:56:44;;;;;;;1.47;0.60;;;;;;;;;;4945821;29;20220;-85
2024/01/04 07:59:48;;;;;;;0.83;0.53;;;;;;;;;;4934230;29;20545;-85
2024/01/04 08:02:52;;;;;;;1.77;0.57;;;;;;;;;;4946126;29;20176;-85
2024/01/04 08:05:57;;;;;;;1.37;0.57;;;;;;;;;;4935131;29;20219;-85
2024/01/04 08:09:01;;;;;;;5.00;1.10;;;;;;;;;;4934207;29;20192;-85
2024/01/04 08:12:06;;;;;;;4.10;1.00;;;;;;;;;;4944764;29;20180;-85
2024/01/04 08:15:10;;;;;;;1.40;0.50;;;;;;;;;;4945139;29;20184;-85
2024/01/04 08:18:15;;;;;;;1.77;0.53;;;;;;;;;;4945476;29;20181;-85
2024/01/04 08:21:19;;;;;;;1.80;0.90;;;;;;;;;;4944711;29;20212;-85
2024/01/04 08:24:23;;;;;;;1.00;0.70;;;;;;;;;;4933168;29;20188;-85
2024/01/04 08:27:27;;;;;;;3.70;1.13;;;;;;;;;;4922493;29;20188;-85
2024/01/04 08:30:32;;;;;;;1.60;0.40;;;;;;;;;;4944134;29;20188;-85
2024/01/04 08:33:36;;;;;;;3.33;0.70;;;;;;;;;;4933132;29;20184;-85
2024/01/04 08:36:40;;;;;;;3.23;0.80;;;;;;;;;;4934938;29;20228;-85
2024/01/04 08:39:45;;;;;;;0.97;0.50;;;;;;;;;;4943704;29;20188;-85
2024/01/04 08:42:49;;;;;;;3.00;0.57;;;;;;;;;;4931837;29;20181;-85
2024/01/04 08:45:55;;;;;;;1.30;0.53;;;;;;;;;;4953400;29;20224;-85
2024/01/04 08:48:59;;;;;;;2.03;0.70;;;;;;;;;;4930550;29;20188;-87
2024/01/04 08:52:04;;;;;;;1.97;0.57;;;;;;;;;;4941239;29;20185;-87
2024/01/04 08:55:08;;;;;;;2.00;0.70;;;;;;;;;;4930742;29;20184;-86
2024/01/04 08:58:12;;;;;;;0.97;0.50;;;;;;;;;;4942031;29;20184;-86
2024/01/04 09:01:17;;;;;;;0.90;0.60;;;;;;;;;;4941916;29;20213;-87
2024/01/04 09:04:21;;;;;;;0.50;0.33;;;;;;;;;;4941969;29;20188;-86
2024/01/04 09:07:26;;;;;;;3.23;0.50;;;;;;;;;;4941200;29;20188;-86
2024/01/04 09:10:31;;;;;;;1.83;0.60;;;;;;;;;;4940857;29;20192;-86
2024/01/04 09:13:35;;;;;;;1.80;0.50;;;;;;;;;;4940662;29;20184;-86
2024/01/04 09:16:41;;;;;;;2.17;0.70;;;;;;;;;;4950813;29;20219;-86
2024/01/04 09:19:46;;;;;;;2.57;0.60;;;;;;;;;;4940085;29;20546;-87
2024/01/04 09:22:50;;;;;;;2.23;0.60;;;;;;;;;;4928108;29;20212;-86
2024/01/04 09:25:54;;;;;;;3.20;0.70;;;;;;;;;;4939356;29;20220;-86
2024/01/04 09:28:59;;;;;;;1.67;0.60;;;;;;;;;;4939846;29;20188;-86
2024/01/04 09:32:03;;;;;;;0.50;0.40;;;;;;;;;;4939960;29;20181;-85
2024/01/04 09:35:07;;;;;;;2.37;0.50;;;;;;;;;;4938352;29;20549;-86
2024/01/04 09:38:12;;;;;;;1.50;0.80;;;;;;;;;;4927374;29;20214;-85
2024/01/04 09:41:29;;;;;;;1.77;0.70;;;;;;;;;;4937972;29;20208;-87
2024/01/04 09:44:34;;;;;;;2.23;0.40;;;;;;;;;;4937939;29;20177;-85
2024/01/04 09:47:42;;;;;;;4.97;0.90;;;;;;;;;;4938239;29;20188;-86
2024/01/04 09:50:46;;;;;;;2.13;0.60;;;;;;;;;;4938289;29;20185;-86
2024/01/04 09:53:54;;;;;;;1.93;0.50;;;;;;;;;;4937221;29;20188;-86
2024/01/04 09:57:00;;;;;;;1.23;0.53;;;;;;;;;;4937076;29;20224;-86
2024/01/04 10:00:05;;;;;;;2.20;0.80;;;;;;;;;;4936739;29;20184;-86
2024/01/04 10:03:16;;;;;;;2.63;0.70;;;;;;;;;;4937861;29;20186;-86
2024/01/04 10:06:30;;;;;;;1.67;0.63;;;;;;;;;;4939301;29;20228;-87
2024/01/04 10:09:53;;;;;;;1.43;0.57;;;;;;;;;;4936538;29;20200;-87
2024/01/04 10:12:59;;;;;;;1.83;0.70;;;;;;;;;;4938196;29;20173;-87
2024/01/04 10:16:05;;;;;;;3.93;0.93;;;;;;;;;;4948402;29;20227;-87
2024/01/04 10:19:10;;;;;;;1.73;0.63;;;;;;;;;;4937921;29;20527;-87
2024/01/04 10:22:15;;;;;;;3.63;0.77;;;;;;;;;;4938819;29;20220;-85
2024/01/04 10:25:22;;;;;;;3.47;0.80;;;;;;;;;;4937521;29;20211;-86
2024/01/04 10:28:26;;;;;;;4.60;0.80;;;;;;;;;;4937201;29;20586;-86
2024/01/04 10:31:30;;;;;;;2.80;0.60;;;;;;;;;;4937343;29;20176;-86
2024/01/04 10:34:35;;;;;;;2.83;0.80;;;;;;;;;;4928702;29;20176;-87
2024/01/04 10:37:39;;;;;;;2.37;0.87;;;;;;;;;;4929303;29;20634;-86
2024/01/04 10:40:43;;;;;;;2.53;0.90;;;;;;;;;;4941686;29;20176;-87
2024/01/04 10:43:47;;;;;;;3.33;0.80;;;;;;;;;;4940545;29;20184;-85
2024/01/04 10:46:59;;;;;;;3.33;0.90;;;;;;;;;;4939345;29;20220;-85
2024/01/04 10:50:04;;;;;;;2.40;0.80;;;;;;;;;;4927908;29;20189;-86
2024/01/04 10:53:12;;;;;;;2.03;0.70;;;;;;;;;;4939549;29;20641;-85
2024/01/04 10:56:16;;;;;;;2.30;0.80;;;;;;;;;;4944758;29;20220;-84
2024/01/04 11:03:53;;;;;;;1.67;0.80;;;;;;;;;;4940383;29;20519;-87
2024/01/04 11:07:01;;;;;;;4.47;0.70;;;;;;;;;;4946178;29;20220;-82
2024/01/04 11:10:09;;;;;;;4.17;0.90;;;;;;;;;;4949713;29;20541;-85
2024/01/04 11:13:13;;;;;;;4.03;0.93;;;;;;;;;;4938377;29;20180;-86
2024/01/04 11:16:32;;;;;;;1.67;0.90;;;;;;;;;;4938674;29;20220;-85
2024/01/04 11:19:49;;;;;;;3.90;1.70;;;;;;;;;;4939082;29;20215;-85
2024/01/04 11:23:13;;;;;;;4.27;0.93;;;;;;;;;;4938861;29;20208;-86
2024/01/04 11:26:34;;;;;;;3.40;1.37;;;;;;;;;;4945138;29;20219;-84
2024/01/04 11:29:39;;;;;;;2.97;0.70;;;;;;;;;;4940028;29;20185;-83
2024/01/04 11:32:44;;;;;;;2.10;0.77;;;;;;;;;;4939609;29;20176;-84
2024/01/04 11:35:51;;;;;;;3.33;1.03;;;;;;;;;;4938924;29;20227;-84
2024/01/04 11:38:57;;;;;;;1.97;0.70;;;;;;;;;;4950185;29;20184;-85
2024/01/04 11:42:12;;;;;;;1.07;0.87;;;;;;;;;;4927691;29;20212;-85
2024/01/04 11:45:18;;;;;;;5.20;1.00;;;;;;;;;;4937864;29;20533;-86
2024/01/04 11:48:22;;;;;;;3.33;0.77;;;;;;;;;;4940613;29;20192;-83
2024/01/04 11:51:48;;;;;;;2.80;0.60;;;;;;;;;;4942300;29;20172;-83
2024/01/04 11:59:42;;;;;;;4.53;1.00;;;;;;;;;;4951509;29;20188;-84
2024/01/04 12:06:23;;;;;;;2.80;0.87;;;;;;;;;;4935035;29;20291;-83
2024/01/04 12:09:28;;;;;;;4.37;1.00;;;;;;;;;;4939930;29;20181;-83
2024/01/04 12:12:32;;;;;;;2.03;0.63;;;;;;;;;;4939583;29;20185;-85
2024/01/04 12:15:37;;;;;;;3.17;0.90;;;;;;;;;;4940424;29;20216;-85
2024/01/04 12:18:41;;;;;;;3.77;0.90;;;;;;;;;;4950497;29;20181;-86
2024/01/04 12:21:45;;;;;;;3.33;0.90;;;;;;;;;;4917766;29;20219;-85
2024/01/04 12:24:50;;;;;;;3.33;0.70;;;;;;;;;;4939640;29;20189;-86
2024/01/04 12:27:54;;;;;;;1.93;0.70;;;;;;;;;;4939973;29;20185;-84
2024/01/04 12:30:59;;;;;;;3.70;1.40;;;;;;;;;;4940748;29;20180;-84
2024/01/04 12:34:07;;;;;;;3.43;1.07;;;;;;;;;;4940062;29;20532;-84
2024/01/04 12:37:16;;;;;;;24.43;10.27;;;;;;;;;;4939677;29;20708;-84
2024/01/04 12:40:20;;;;;;;13.47;5.33;;;;;;;;;;4940165;29;20184;-84
2024/01/04 12:43:26;;;;;;;5.97;2.70;;;;;;;;;;4928999;29;20208;-83
2024/01/04 12:46:33;;;;;;;10.27;4.93;;;;;;;;;;4951687;29;20689;-84
2024/01/04 12:49:40;;;;;;;13.77;6.17;;;;;;;;;;4942088;29;20181;-83
2024/01/04 12:52:44;;;;;;;32.90;15.67;;;;;;;;;;4951618;29;20181;-85
2024/01/04 12:55:49;;;;;;;23.23;11.63;;;;;;;;;;4940411;29;20570;-84
2024/01/04 12:58:56;;;;;;;6.07;2.43;;;;;;;;;;4950947;29;20185;-83
2024/01/04 13:02:00;;;;;;;1.90;0.90;;;;;;;;;;4941069;29;20212;-83
2024/01/04 13:05:08;;;;;;;1.53;0.60;;;;;;;;;;4942608;29;20184;-83
2024/01/04 13:08:12;;;;;;;2.90;0.70;;;;;;;;;;4941941;29;20184;-83
2024/01/04 13:15:38;;;;;;;3.90;1.47;;;;;;;;;;4942563;29;20216;-85
2024/01/04 13:18:42;;;;;;;2.10;0.80;;;;;;;;;;4937064;29;20184;-84
2024/01/04 13:21:46;;;;;;;1.20;0.70;;;;;;;;;;4937044;29;20192;-85
2024/01/04 13:24:51;;;;;;;3.27;0.90;;;;;;;;;;4915648;29;20184;-84
2024/01/04 13:27:55;;;;;;;3.83;0.80;;;;;;;;;;4928170;29;20184;-83
2024/01/04 13:31:01;;;;;;;1.63;0.60;;;;;;;;;;4939601;29;20181;-83
2024/01/04 13:34:05;;;;;;;2.53;1.50;;;;;;;;;;4940073;29;20184;-83
2024/01/04 13:37:09;;;;;;;2.90;1.10;;;;;;;;;;4940597;29;20231;-85
2024/01/04 13:40:14;;;;;;;3.00;0.93;;;;;;;;;;4943785;29;20184;-86
2024/01/04 13:43:18;;;;;;;3.83;1.03;;;;;;;;;;4945625;29;20208;-83
2024/01/04 13:46:22;;;;;;;3.03;0.80;;;;;;;;;;4942445;29;20223;-84
2024/01/04 13:49:26;;;;;;;2.13;0.97;;;;;;;;;;4937900;29;20200;-85
2024/01/04 13:52:30;;;;;;;1.70;1.20;;;;;;;;;;4926261;29;20181;-83
2024/01/04 13:55:35;;;;;;;3.57;1.40;;;;;;;;;;4941020;29;20224;-85
2024/01/04 13:58:39;;;;;;;3.57;1.63;;;;;;;;;;4948069;29;20188;-84
2024/01/04 14:01:44;;;;;;;3.60;1.07;;;;;;;;;;4925318;29;20184;-84
2024/01/04 14:04:48;;;;;;;2.63;1.00;;;;;;;;;;4953494;29;20176;-83
2024/01/04 14:07:52;;;;;;;4.37;1.00;;;;;;;;;;4940256;29;20180;-83
2024/01/04 14:10:58;;;;;;;2.60;0.60;;;;;;;;;;4936418;29;20184;-86
2024/01/04 14:14:03;;;;;;;1.33;0.70;;;;;;;;;;4915578;29;20522;-85
2024/01/04 14:17:07;;;;;;;2.53;1.00;;;;;;;;;;4948017;29;20219;-83
2024/01/04 14:20:11;;;;;;;4.37;2.10;;;;;;;;;;4936818;29;20188;-85
2024/01/04 14:23:15;;;;;;;1.93;1.13;;;;;;;;;;4947231;29;20565;-85
2024/01/04 14:26:22;;;;;;;2.77;1.20;;;;;;;;;;4950837;29;20219;-82
2024/01/04 14:30:43;;;;;;;3.00;2.40;;;;;;;;;;4942991;29;20188;-85
2024/01/04 14:33:47;;;;;;;4.80;2.63;;;;;;;;;;4940721;29;20180;-84
2024/01/04 14:36:52;;;;;;;4.30;3.77;;;;;;;;;;4937040;29;20403;-84
2024/01/04 14:39:57;;;;;;;4.27;2.13;;;;;;;;;;4936582;29;20188;-82
2024/01/04 14:43:01;;;;;;;1.47;0.90;;;;;;;;;;4935927;29;20216;-85
2024/01/04 14:46:06;;;;;;;3.43;0.80;;;;;;;;;;4937016;29;20220;-83
2024/01/04 14:50:16;;;;;;;2.90;1.27;;;;;;;;;;4972737;28;20196;-86
2024/01/04 14:53:20;;;;;;;1.37;1.00;;;;;;;;;;4937490;29;20185;-83
2024/01/04 14:56:24;;;;;;;2.93;0.80;;;;;;;;;;4935729;29;20219;-85
2024/01/04 14:59:29;;;;;;;1.33;1.00;;;;;;;;;;4946679;29;20554;-85
2024/01/04 15:02:34;;;;;;;3.57;0.80;;;;;;;;;;4946673;29;20212;-84
2024/01/04 15:05:39;;;;;;;2.63;0.70;;;;;;;;;;4939089;29;20713;-83
2024/01/04 15:08:43;;;;;;;3.10;0.80;;;;;;;;;;4937771;29;20192;-85
2024/01/04 15:11:50;;;;;;;3.07;0.80;;;;;;;;;;4940866;29;20188;-83
2024/01/04 15:14:54;;;;;;;2.27;0.93;;;;;;;;;;4917442;29;20181;-85
2024/01/04 15:17:58;;;;;;;1.70;0.93;;;;;;;;;;4929213;29;20188;-85
2024/01/04 15:21:03;;;;;;;1.07;0.70;;;;;;;;;;4926112;29;20188;-83
2024/01/04 15:24:07;;;;;;;1.97;0.83;;;;;;;;;;4954166;29;20212;-83
2024/01/04 15:27:12;;;;;;;1.47;0.80;;;;;;;;;;4951553;29;20220;-84
2024/01/04 15:30:16;;;;;;;1.83;1.00;;;;;;;;;;4937807;29;20196;-84
2024/01/04 15:33:21;;;;;;;3.30;1.17;;;;;;;;;;4931768;29;20180;-83
2024/01/04 15:36:26;;;;;;;2.50;1.10;;;;;;;;;;4936908;28;20232;-85
2024/01/04 15:39:32;;;;;;;1.50;1.30;;;;;;;;;;4943040;29;20180;-83
2024/01/04 15:43:28;;;;;;;1.90;1.20;;;;;;;;;;4946724;29;20216;-82
2024/01/04 15:46:32;;;;;;;2.73;1.67;;;;;;;;;;4938984;29;20701;-83
2024/01/04 15:49:37;;;;;;;1.27;0.93;;;;;;;;;;4938255;29;20180;-85
2024/01/04 15:52:41;;;;;;;2.13;1.10;;;;;;;;;;4938264;29;20177;-85
2024/01/04 15:55:46;;;;;;;1.87;0.87;;;;;;;;;;4951571;29;20708;-83
2024/01/04 15:58:52;;;;;;;1.27;0.93;;;;;;;;;;4954233;29;20188;-82
2024/01/04 16:01:58;;;;;;;2.83;0.90;;;;;;;;;;4951384;29;20180;-82
2024/01/04 16:05:08;;;;;;;3.80;1.27;;;;;;;;;;4964694;29;20192;-82
2024/01/04 16:08:13;;;;;;;2.23;1.03;;;;;;;;;;4988012;28;20177;-85
2024/01/04 16:11:17;;;;;;;3.40;0.97;;;;;;;;;;4935942;29;20637;-84
2024/01/04 16:14:22;;;;;;;2.20;0.90;;;;;;;;;;4936806;29;20185;-84
2024/01/04 16:17:26;;;;;;;2.10;1.00;;;;;;;;;;4937005;29;20187;-84
2024/01/04 16:20:30;;;;;;;1.40;1.23;;;;;;;;;;4938631;29;20184;-83
2024/01/04 16:23:34;;;;;;;3.20;1.10;;;;;;;;;;4937616;29;20220;-83
2024/01/04 16:26:41;;;;;;;2.17;0.93;;;;;;;;;;4939241;29;20223;-82
2024/01/04 16:29:48;;;;;;;2.70;1.00;;;;;;;;;;4931900;29;20188;-85
2024/01/04 16:32:54;;;;;;;1.57;1.20;;;;;;;;;;4935601;29;20192;-83
2024/01/04 16:36:29;;;;;;;4.90;1.90;;;;;;;;;;4938320;29;20616;-85
2024/01/04 16:39:33;;;;;;;2.27;1.10;;;;;;;;;;4936078;29;20180;-86
2024/01/04 16:42:39;;;;;;;3.27;0.90;;;;;;;;;;4936626;29;20176;-85
2024/01/04 16:45:44;;;;;;;1.30;0.80;;;;;;;;;;4937325;29;20244;-85
2024/01/04 16:48:48;;;;;;;2.60;0.70;;;;;;;;;;4925061;29;20188;-86
2024/01/04 16:51:52;;;;;;;2.13;0.90;;;;;;;;;;4936067;29;20192;-85
2024/01/04 16:54:56;;;;;;;1.60;0.90;;;;;;;;;;4935523;29;20184;-85
2024/01/04 16:58:01;;;;;;;1.73;0.80;;;;;;;;;;4936226;29;20641;-85
2024/01/04 17:01:07;;;;;;;2.73;0.80;;;;;;;;;;4947274;29;20188;-85
2024/01/04 17:04:32;;;;;;;2.20;0.73;;;;;;;;;;4927741;29;20204;-85
2024/01/04 17:07:37;;;;;;;7.37;3.00;;;;;;;;;;4935575;29;20181;-85
2024/01/04 17:10:41;;;;;;;4.97;1.20;;;;;;;;;;4936493;29;20196;-85
2024/01/04 17:13:45;;;;;;;3.17;1.47;;;;;;;;;;4936227;29;20185;-84
2024/01/04 17:16:49;;;;;;;2.83;0.90;;;;;;;;;;4935384;29;20228;-85
2024/01/04 17:19:53;;;;;;;5.10;1.63;;;;;;;;;;4925088;29;20188;-85
2024/01/04 17:22:57;;;;;;;4.27;1.10;;;;;;;;;;4935364;29;20184;-85
2024/01/04 17:26:03;;;;;;;8.30;1.23;;;;;;;;;;4935910;29;20224;-86
2024/01/04 17:29:07;;;;;;;2.80;1.30;;;;;;;;;;4936254;29;20636;-85
2024/01/04 17:32:11;;;;;;;10.97;2.90;;;;;;;;;;4935854;29;20184;-85
2024/01/04 17:35:16;;;;;;;5.70;1.70;;;;;;;;;;4924724;29;20204;-85
2024/01/04 17:38:20;;;;;;;2.37;1.07;;;;;;;;;;4936023;29;20541;-85
2024/01/04 17:41:24;;;;;;;2.00;1.00;;;;;;;;;;4936985;29;20530;-86
2024/01/04 17:44:28;;;;;;;2.93;1.10;;;;;;;;;;4924277;29;20212;-87
2024/01/04 17:47:33;;;;;;;2.10;1.20;;;;;;;;;;4924472;29;20183;-86
2024/01/04 17:50:37;;;;;;;4.57;2.10;;;;;;;;;;4935304;29;20204;-86
2024/01/04 17:53:41;;;;;;;5.20;2.40;;;;;;;;;;4936125;29;20180;-85
2024/01/04 17:56:45;;;;;;;5.90;3.83;;;;;;;;;;4935780;29;20223;-85
2024/01/04 17:59:49;;;;;;;9.90;2.93;;;;;;;;;;4935683;29;20626;-85
2024/01/04 18:02:55;;;;;;;6.23;2.50;;;;;;;;;;4913577;29;20625;-85
2024/01/04 18:05:59;;;;;;;3.53;1.37;;;;;;;;;;4934871;29;20989;-85
2024/01/04 18:09:04;;;;;;;3.60;1.63;;;;;;;;;;4913351;29;20192;-85
2024/01/04 18:12:08;;;;;;;1.97;1.20;;;;;;;;;;4935033;29;20185;-85
2024/01/04 18:15:13;;;;;;;4.77;1.50;;;;;;;;;;4935817;29;20183;-85
2024/01/04 18:18:17;;;;;;;3.87;1.40;;;;;;;;;;4935066;29;20184;-85
2024/01/04 18:21:21;;;;;;;4.80;1.40;;;;;;;;;;4913623;29;20184;-86
2024/01/04 18:24:26;;;;;;;2.77;1.50;;;;;;;;;;4924105;29;20558;-85
2024/01/04 18:27:31;;;;;;;6.90;1.40;;;;;;;;;;4935381;29;20188;-85
2024/01/04 18:30:36;;;;;;;4.73;1.10;;;;;;;;;;4935291;29;20188;-85
2024/01/04 18:33:40;;;;;;;2.00;1.10;;;;;;;;;;4926851;29;20518;-82
2024/01/04 18:36:45;;;;;;;5.83;1.20;;;;;;;;;;4938410;29;20395;-83
2024/01/04 18:39:49;;;;;;;3.43;1.37;;;;;;;;;;4937592;29;20184;-83
2024/01/04 18:42:53;;;;;;;3.27;1.40;;;;;;;;;;4998607;28;20184;-81
2024/01/04 18:45:57;;;;;;;2.67;1.53;;;;;;;;;;4954733;29;20573;-82
2024/01/04 18:49:02;;;;;;;3.57;1.30;;;;;;;;;;4933386;29;20180;-83
2024/01/04 18:52:06;;;;;;;2.93;1.30;;;;;;;;;;4934746;29;20189;-84